sensor_id;sensor_type;location;lat;lon;timestamp;P1;durP1;ratioP1;P2;durP2;ratioP2
76346;SDS011;73309;48.818;9.806;2023-12-20T00:01:24;3.60;;;2.33;;
76346;SDS011;73309;48.818;9.806;2023-12-20T00:03:50;3.07;;;2.30;;
76346;SDS011;73309;48.818;9.806;2023-12-20T00:06:15;2.80;;;2.40;;
76346;SDS011;73309;48.818;9.806;2023-12-20T00:08:42;2.30;;;2.10;;
76346;SDS011;73309;48.818;9.806;2023-12-20T00:11:07;2.50;;;2.30;;
76346;SDS011;73309;48.818;9.806;2023-12-20T00:13:33;2.60;;;2.30;;
76346;SDS011;73309;48.818;9.806;2023-12-20T00:15:58;2.50;;;2.30;;
76346;SDS011;73309;48.818;9.806;2023-12-20T00:18:23;2.30;;;2.10;;
76346;SDS011;73309;48.818;9.806;2023-12-20T00:20:49;2.37;;;2.17;;
76346;SDS011;73309;48.818;9.806;2023-12-20T00:23:14;2.50;;;2.30;;
76346;SDS011;73309;48.818;9.806;2023-12-20T00:25:41;2.47;;;2.13;;
76346;SDS011;73309;48.818;9.806;2023-12-20T00:28:07;2.10;;;1.90;;
76346;SDS011;73309;48.818;9.806;2023-12-20T00:30:32;2.00;;;1.87;;
76346;SDS011;73309;48.818;9.806;2023-12-20T00:32:57;2.60;;;2.40;;
76346;SDS011;73309;48.818;9.806;2023-12-20T00:35:23;2.20;;;2.00;;
76346;SDS011;73309;48.818;9.806;2023-12-20T00:37:48;2.43;;;2.20;;
76346;SDS011;73309;48.818;9.806;2023-12-20T00:40:14;2.27;;;2.07;;
76346;SDS011;73309;48.818;9.806;2023-12-20T00:42:40;2.27;;;2.07;;
76346;SDS011;73309;48.818;9.806;2023-12-20T00:45:06;2.20;;;2.00;;
76346;SDS011;73309;48.818;9.806;2023-12-20T00:47:32;2.23;;;2.03;;
76346;SDS011;73309;48.818;9.806;2023-12-20T00:49:58;2.83;;;2.20;;
76346;SDS011;73309;48.818;9.806;2023-12-20T00:52:23;2.10;;;1.90;;
76346;SDS011;73309;48.818;9.806;2023-12-20T00:54:49;2.20;;;2.00;;
76346;SDS011;73309;48.818;9.806;2023-12-20T00:57:14;2.10;;;1.90;;
76346;SDS011;73309;48.818;9.806;2023-12-20T00:59:41;2.03;;;1.83;;
76346;SDS011;73309;48.818;9.806;2023-12-20T01:02:06;1.93;;;1.80;;
76346;SDS011;73309;48.818;9.806;2023-12-20T01:04:32;2.30;;;2.10;;
76346;SDS011;73309;48.818;9.806;2023-12-20T01:06:57;2.20;;;1.97;;
76346;SDS011;73309;48.818;9.806;2023-12-20T01:09:23;1.93;;;1.73;;
76346;SDS011;73309;48.818;9.806;2023-12-20T01:11:48;2.00;;;1.80;;
76346;SDS011;73309;48.818;9.806;2023-12-20T01:14:13;2.37;;;1.90;;
76346;SDS011;73309;48.818;9.806;2023-12-20T01:16:40;1.70;;;1.60;;
76346;SDS011;73309;48.818;9.806;2023-12-20T01:19:05;2.30;;;2.10;;
76346;SDS011;73309;48.818;9.806;2023-12-20T01:21:31;1.97;;;1.80;;
76346;SDS011;73309;48.818;9.806;2023-12-20T01:23:56;1.83;;;1.73;;
76346;SDS011;73309;48.818;9.806;2023-12-20T01:26:22;3.00;;;2.07;;
76346;SDS011;73309;48.818;9.806;2023-12-20T01:28:47;1.83;;;1.60;;
76346;SDS011;73309;48.818;9.806;2023-12-20T01:31:12;1.80;;;1.70;;
76346;SDS011;73309;48.818;9.806;2023-12-20T01:33:39;1.80;;;1.70;;
76346;SDS011;73309;48.818;9.806;2023-12-20T01:36:05;2.20;;;1.80;;
76346;SDS011;73309;48.818;9.806;2023-12-20T01:38:30;1.70;;;1.60;;
76346;SDS011;73309;48.818;9.806;2023-12-20T01:40:56;2.00;;;1.80;;
76346;SDS011;73309;48.818;9.806;2023-12-20T01:43:21;2.77;;;1.80;;
76346;SDS011;73309;48.818;9.806;2023-12-20T01:45:46;1.50;;;1.40;;
76346;SDS011;73309;48.818;9.806;2023-12-20T01:48:12;1.70;;;1.60;;
76346;SDS011;73309;48.818;9.806;2023-12-20T01:50:39;1.70;;;1.60;;
76346;SDS011;73309;48.818;9.806;2023-12-20T01:53:05;1.80;;;1.70;;
76346;SDS011;73309;48.818;9.806;2023-12-20T01:55:33;1.73;;;1.63;;
76346;SDS011;73309;48.818;9.806;2023-12-20T01:58:01;2.07;;;1.87;;
76346;SDS011;73309;48.818;9.806;2023-12-20T02:00:27;1.87;;;1.67;;
76346;SDS011;73309;48.818;9.806;2023-12-20T02:02:54;1.70;;;1.60;;
76346;SDS011;73309;48.818;9.806;2023-12-20T02:05:20;2.00;;;1.80;;
76346;SDS011;73309;48.818;9.806;2023-12-20T02:07:47;1.77;;;1.63;;
76346;SDS011;73309;48.818;9.806;2023-12-20T02:10:12;1.43;;;1.33;;
76346;SDS011;73309;48.818;9.806;2023-12-20T02:12:38;1.90;;;1.70;;
76346;SDS011;73309;48.818;9.806;2023-12-20T02:15:03;1.83;;;1.50;;
76346;SDS011;73309;48.818;9.806;2023-12-20T02:17:30;1.80;;;1.70;;
76346;SDS011;73309;48.818;9.806;2023-12-20T02:19:56;1.67;;;1.57;;
76346;SDS011;73309;48.818;9.806;2023-12-20T02:22:23;1.67;;;1.57;;
76346;SDS011;73309;48.818;9.806;2023-12-20T02:24:48;1.70;;;1.60;;
76346;SDS011;73309;48.818;9.806;2023-12-20T02:27:14;1.60;;;1.50;;
76346;SDS011;73309;48.818;9.806;2023-12-20T02:29:42;1.83;;;1.60;;
76346;SDS011;73309;48.818;9.806;2023-12-20T02:32:08;1.50;;;1.40;;
76346;SDS011;73309;48.818;9.806;2023-12-20T02:34:33;1.80;;;1.60;;
76346;SDS011;73309;48.818;9.806;2023-12-20T02:36:59;1.60;;;1.50;;
76346;SDS011;73309;48.818;9.806;2023-12-20T02:39:25;1.50;;;1.40;;
76346;SDS011;73309;48.818;9.806;2023-12-20T02:41:51;1.80;;;1.60;;
76346;SDS011;73309;48.818;9.806;2023-12-20T02:44:16;1.87;;;1.50;;
76346;SDS011;73309;48.818;9.806;2023-12-20T02:46:42;1.60;;;1.50;;
76346;SDS011;73309;48.818;9.806;2023-12-20T02:49:07;1.70;;;1.50;;
76346;SDS011;73309;48.818;9.806;2023-12-20T02:51:32;1.83;;;1.57;;
76346;SDS011;73309;48.818;9.806;2023-12-20T02:53:58;2.63;;;1.57;;
76346;SDS011;73309;48.818;9.806;2023-12-20T02:56:25;1.77;;;1.50;;
76346;SDS011;73309;48.818;9.806;2023-12-20T02:58:50;1.97;;;1.67;;
76346;SDS011;73309;48.818;9.806;2023-12-20T03:01:15;1.47;;;1.37;;
76346;SDS011;73309;48.818;9.806;2023-12-20T03:03:41;1.50;;;1.40;;
76346;SDS011;73309;48.818;9.806;2023-12-20T03:06:06;1.37;;;1.27;;
76346;SDS011;73309;48.818;9.806;2023-12-20T03:08:31;2.00;;;1.50;;
76346;SDS011;73309;48.818;9.806;2023-12-20T03:10:58;1.50;;;1.40;;
76346;SDS011;73309;48.818;9.806;2023-12-20T03:13:25;1.47;;;1.37;;
76346;SDS011;73309;48.818;9.806;2023-12-20T03:15:51;2.00;;;1.60;;
76346;SDS011;73309;48.818;9.806;2023-12-20T03:18:16;1.87;;;1.47;;
76346;SDS011;73309;48.818;9.806;2023-12-20T03:20:41;1.30;;;1.20;;
76346;SDS011;73309;48.818;9.806;2023-12-20T03:23:07;1.40;;;1.30;;
76346;SDS011;73309;48.818;9.806;2023-12-20T03:25:32;1.40;;;1.30;;
76346;SDS011;73309;48.818;9.806;2023-12-20T03:27:58;1.50;;;1.40;;
76346;SDS011;73309;48.818;9.806;2023-12-20T03:30:24;1.80;;;1.50;;
76346;SDS011;73309;48.818;9.806;2023-12-20T03:32:50;1.60;;;1.50;;
76346;SDS011;73309;48.818;9.806;2023-12-20T03:35:15;1.30;;;1.20;;
76346;SDS011;73309;48.818;9.806;2023-12-20T03:37:40;1.50;;;1.40;;
76346;SDS011;73309;48.818;9.806;2023-12-20T03:40:06;1.60;;;1.50;;
76346;SDS011;73309;48.818;9.806;2023-12-20T03:42:32;1.83;;;1.50;;
76346;SDS011;73309;48.818;9.806;2023-12-20T03:44:57;1.40;;;1.30;;
76346;SDS011;73309;48.818;9.806;2023-12-20T03:47:24;1.27;;;1.17;;
76346;SDS011;73309;48.818;9.806;2023-12-20T03:49:49;2.23;;;1.30;;
76346;SDS011;73309;48.818;9.806;2023-12-20T03:52:15;1.40;;;1.23;;
76346;SDS011;73309;48.818;9.806;2023-12-20T03:54:40;1.30;;;1.20;;
76346;SDS011;73309;48.818;9.806;2023-12-20T03:57:05;1.40;;;1.30;;
76346;SDS011;73309;48.818;9.806;2023-12-20T03:59:34;1.60;;;1.50;;
76346;SDS011;73309;48.818;9.806;2023-12-20T04:02:00;1.50;;;1.40;;
76346;SDS011;73309;48.818;9.806;2023-12-20T04:04:26;1.53;;;1.40;;
76346;SDS011;73309;48.818;9.806;2023-12-20T04:06:52;1.50;;;1.40;;
76346;SDS011;73309;48.818;9.806;2023-12-20T04:09:17;1.33;;;1.10;;
76346;SDS011;73309;48.818;9.806;2023-12-20T04:11:43;2.13;;;1.20;;
76346;SDS011;73309;48.818;9.806;2023-12-20T04:14:08;1.33;;;1.20;;
76346;SDS011;73309;48.818;9.806;2023-12-20T04:16:34;1.33;;;1.20;;
76346;SDS011;73309;48.818;9.806;2023-12-20T04:18:59;1.30;;;1.20;;
76346;SDS011;73309;48.818;9.806;2023-12-20T04:21:26;1.03;;;1.00;;
76346;SDS011;73309;48.818;9.806;2023-12-20T04:23:51;1.33;;;1.20;;
76346;SDS011;73309;48.818;9.806;2023-12-20T04:26:17;1.17;;;1.07;;
76346;SDS011;73309;48.818;9.806;2023-12-20T04:28:42;1.30;;;1.20;;
76346;SDS011;73309;48.818;9.806;2023-12-20T04:31:08;1.40;;;1.20;;
76346;SDS011;73309;48.818;9.806;2023-12-20T04:33:33;1.70;;;1.30;;
76346;SDS011;73309;48.818;9.806;2023-12-20T04:35:58;1.30;;;1.20;;
76346;SDS011;73309;48.818;9.806;2023-12-20T04:38:25;1.20;;;1.00;;
76346;SDS011;73309;48.818;9.806;2023-12-20T04:40:51;1.20;;;1.10;;
76346;SDS011;73309;48.818;9.806;2023-12-20T04:43:16;1.20;;;1.10;;
76346;SDS011;73309;48.818;9.806;2023-12-20T04:45:42;1.20;;;1.10;;
76346;SDS011;73309;48.818;9.806;2023-12-20T04:48:07;1.20;;;1.10;;
76346;SDS011;73309;48.818;9.806;2023-12-20T04:50:33;1.20;;;1.10;;
76346;SDS011;73309;48.818;9.806;2023-12-20T04:52:58;1.20;;;1.10;;
76346;SDS011;73309;48.818;9.806;2023-12-20T04:55:25;1.40;;;1.20;;
76346;SDS011;73309;48.818;9.806;2023-12-20T04:57:50;1.20;;;1.10;;
76346;SDS011;73309;48.818;9.806;2023-12-20T05:00:16;1.30;;;1.20;;
76346;SDS011;73309;48.818;9.806;2023-12-20T05:02:41;1.20;;;1.10;;
76346;SDS011;73309;48.818;9.806;2023-12-20T05:05:07;0.90;;;0.90;;
76346;SDS011;73309;48.818;9.806;2023-12-20T05:07:33;1.10;;;1.00;;
76346;SDS011;73309;48.818;9.806;2023-12-20T05:09:58;1.13;;;1.03;;
76346;SDS011;73309;48.818;9.806;2023-12-20T05:12:25;1.40;;;1.10;;
76346;SDS011;73309;48.818;9.806;2023-12-20T05:14:51;0.90;;;0.90;;
76346;SDS011;73309;48.818;9.806;2023-12-20T05:17:16;1.20;;;1.10;;
76346;SDS011;73309;48.818;9.806;2023-12-20T05:19:42;1.20;;;1.10;;
76346;SDS011;73309;48.818;9.806;2023-12-20T05:22:07;1.20;;;1.10;;
76346;SDS011;73309;48.818;9.806;2023-12-20T05:24:33;1.03;;;1.03;;
76346;SDS011;73309;48.818;9.806;2023-12-20T05:26:58;1.00;;;1.00;;
76346;SDS011;73309;48.818;9.806;2023-12-20T05:29:25;1.10;;;1.00;;
76346;SDS011;73309;48.818;9.806;2023-12-20T05:31:50;0.90;;;0.90;;
76346;SDS011;73309;48.818;9.806;2023-12-20T05:34:15;0.93;;;0.93;;
76346;SDS011;73309;48.818;9.806;2023-12-20T05:36:41;1.10;;;1.00;;
76346;SDS011;73309;48.818;9.806;2023-12-20T05:39:06;1.13;;;0.90;;
76346;SDS011;73309;48.818;9.806;2023-12-20T05:41:32;1.00;;;0.90;;
76346;SDS011;73309;48.818;9.806;2023-12-20T05:43:57;0.90;;;0.90;;
76346;SDS011;73309;48.818;9.806;2023-12-20T05:46:24;1.10;;;1.00;;
76346;SDS011;73309;48.818;9.806;2023-12-20T05:48:49;1.07;;;0.97;;
76346;SDS011;73309;48.818;9.806;2023-12-20T05:51:14;0.80;;;0.80;;
76346;SDS011;73309;48.818;9.806;2023-12-20T05:53:40;1.10;;;1.00;;
76346;SDS011;73309;48.818;9.806;2023-12-20T05:56:05;1.10;;;1.00;;
76346;SDS011;73309;48.818;9.806;2023-12-20T05:58:33;1.00;;;0.80;;
76346;SDS011;73309;48.818;9.806;2023-12-20T06:00:58;1.10;;;1.00;;
76346;SDS011;73309;48.818;9.806;2023-12-20T06:03:25;0.90;;;0.90;;
76346;SDS011;73309;48.818;9.806;2023-12-20T06:05:50;1.00;;;0.90;;
76346;SDS011;73309;48.818;9.806;2023-12-20T06:08:16;0.90;;;0.90;;
76346;SDS011;73309;48.818;9.806;2023-12-20T06:10:41;0.90;;;0.90;;
76346;SDS011;73309;48.818;9.806;2023-12-20T06:13:07;1.33;;;0.90;;
76346;SDS011;73309;48.818;9.806;2023-12-20T06:15:32;0.87;;;0.87;;
76346;SDS011;73309;48.818;9.806;2023-12-20T06:17:58;1.00;;;1.00;;
76346;SDS011;73309;48.818;9.806;2023-12-20T06:20:25;0.90;;;0.90;;
76346;SDS011;73309;48.818;9.806;2023-12-20T06:22:50;0.93;;;0.90;;
76346;SDS011;73309;48.818;9.806;2023-12-20T06:25:15;1.00;;;0.90;;
76346;SDS011;73309;48.818;9.806;2023-12-20T06:27:41;0.90;;;0.90;;
76346;SDS011;73309;48.818;9.806;2023-12-20T06:30:07;0.90;;;0.90;;
76346;SDS011;73309;48.818;9.806;2023-12-20T06:32:33;0.90;;;0.90;;
76346;SDS011;73309;48.818;9.806;2023-12-20T06:34:58;0.90;;;0.90;;
76346;SDS011;73309;48.818;9.806;2023-12-20T06:37:25;0.90;;;0.90;;
76346;SDS011;73309;48.818;9.806;2023-12-20T06:39:50;1.10;;;0.93;;
76346;SDS011;73309;48.818;9.806;2023-12-20T06:42:16;1.03;;;0.90;;
76346;SDS011;73309;48.818;9.806;2023-12-20T06:44:41;0.90;;;0.90;;
76346;SDS011;73309;48.818;9.806;2023-12-20T06:47:06;0.90;;;0.90;;
76346;SDS011;73309;48.818;9.806;2023-12-20T06:49:32;0.90;;;0.90;;
76346;SDS011;73309;48.818;9.806;2023-12-20T06:51:57;0.80;;;0.80;;
76346;SDS011;73309;48.818;9.806;2023-12-20T06:54:24;0.90;;;0.90;;
76346;SDS011;73309;48.818;9.806;2023-12-20T06:56:49;1.10;;;1.00;;
76346;SDS011;73309;48.818;9.806;2023-12-20T06:59:15;0.90;;;0.90;;
76346;SDS011;73309;48.818;9.806;2023-12-20T07:01:40;1.67;;;0.90;;
76346;SDS011;73309;48.818;9.806;2023-12-20T07:04:06;1.10;;;1.00;;
76346;SDS011;73309;48.818;9.806;2023-12-20T07:06:31;0.83;;;0.83;;
76346;SDS011;73309;48.818;9.806;2023-12-20T07:08:56;1.10;;;1.00;;
76346;SDS011;73309;48.818;9.806;2023-12-20T07:11:23;0.90;;;0.90;;
76346;SDS011;73309;48.818;9.806;2023-12-20T07:13:48;1.03;;;0.93;;
76346;SDS011;73309;48.818;9.806;2023-12-20T07:16:14;1.00;;;0.83;;
76346;SDS011;73309;48.818;9.806;2023-12-20T07:18:39;0.80;;;0.80;;
76346;SDS011;73309;48.818;9.806;2023-12-20T07:21:04;0.93;;;0.93;;
76346;SDS011;73309;48.818;9.806;2023-12-20T07:23:30;1.00;;;1.00;;
76346;SDS011;73309;48.818;9.806;2023-12-20T07:25:55;1.10;;;0.93;;
76346;SDS011;73309;48.818;9.806;2023-12-20T07:28:22;1.10;;;1.00;;
76346;SDS011;73309;48.818;9.806;2023-12-20T07:30:47;1.00;;;0.90;;
76346;SDS011;73309;48.818;9.806;2023-12-20T07:33:13;0.90;;;0.90;;
76346;SDS011;73309;48.818;9.806;2023-12-20T07:35:38;1.00;;;0.90;;
76346;SDS011;73309;48.818;9.806;2023-12-20T07:38:03;0.90;;;0.90;;
76346;SDS011;73309;48.818;9.806;2023-12-20T07:40:29;0.90;;;0.90;;
76346;SDS011;73309;48.818;9.806;2023-12-20T07:42:54;1.07;;;1.00;;
76346;SDS011;73309;48.818;9.806;2023-12-20T07:45:21;0.83;;;0.83;;
76346;SDS011;73309;48.818;9.806;2023-12-20T07:47:46;1.00;;;0.90;;
76346;SDS011;73309;48.818;9.806;2023-12-20T07:50:12;0.83;;;0.83;;
76346;SDS011;73309;48.818;9.806;2023-12-20T07:52:37;0.90;;;0.90;;
76346;SDS011;73309;48.818;9.806;2023-12-20T07:55:03;0.90;;;0.90;;
76346;SDS011;73309;48.818;9.806;2023-12-20T07:57:28;0.90;;;0.90;;
76346;SDS011;73309;48.818;9.806;2023-12-20T07:59:54;1.00;;;1.00;;
76346;SDS011;73309;48.818;9.806;2023-12-20T08:02:20;1.00;;;1.00;;
76346;SDS011;73309;48.818;9.806;2023-12-20T08:04:46;1.10;;;1.00;;
76346;SDS011;73309;48.818;9.806;2023-12-20T08:07:11;1.00;;;1.00;;
76346;SDS011;73309;48.818;9.806;2023-12-20T08:09:37;1.20;;;1.10;;
76346;SDS011;73309;48.818;9.806;2023-12-20T08:14:38;1.10;;;1.00;;
76346;SDS011;73309;48.818;9.806;2023-12-20T08:17:03;0.90;;;0.90;;
76346;SDS011;73309;48.818;9.806;2023-12-20T08:19:30;1.00;;;1.00;;
76346;SDS011;73309;48.818;9.806;2023-12-20T08:21:55;1.30;;;1.03;;
76346;SDS011;73309;48.818;9.806;2023-12-20T08:24:21;1.00;;;1.00;;
76346;SDS011;73309;48.818;9.806;2023-12-20T08:26:46;1.10;;;1.00;;
76346;SDS011;73309;48.818;9.806;2023-12-20T08:29:12;1.00;;;1.00;;
76346;SDS011;73309;48.818;9.806;2023-12-20T08:31:38;1.40;;;1.10;;
76346;SDS011;73309;48.818;9.806;2023-12-20T08:34:03;1.20;;;1.10;;
76346;SDS011;73309;48.818;9.806;2023-12-20T08:36:30;1.10;;;1.00;;
76346;SDS011;73309;48.818;9.806;2023-12-20T08:38:55;1.67;;;1.03;;
76346;SDS011;73309;48.818;9.806;2023-12-20T08:41:20;1.73;;;1.10;;
76346;SDS011;73309;48.818;9.806;2023-12-20T08:43:46;1.20;;;1.10;;
76346;SDS011;73309;48.818;9.806;2023-12-20T08:46:11;1.10;;;1.00;;
76346;SDS011;73309;48.818;9.806;2023-12-20T08:48:38;1.30;;;1.20;;
76346;SDS011;73309;48.818;9.806;2023-12-20T08:51:03;1.30;;;1.20;;
76346;SDS011;73309;48.818;9.806;2023-12-20T08:53:30;1.40;;;1.30;;
76346;SDS011;73309;48.818;9.806;2023-12-20T08:55:55;1.30;;;1.20;;
76346;SDS011;73309;48.818;9.806;2023-12-20T08:58:21;1.33;;;1.20;;
76346;SDS011;73309;48.818;9.806;2023-12-20T09:00:46;1.47;;;1.20;;
76346;SDS011;73309;48.818;9.806;2023-12-20T09:03:12;1.43;;;1.33;;
76346;SDS011;73309;48.818;9.806;2023-12-20T09:05:37;1.20;;;1.10;;
76346;SDS011;73309;48.818;9.806;2023-12-20T09:08:03;1.30;;;1.20;;
76346;SDS011;73309;48.818;9.806;2023-12-20T09:10:30;1.40;;;1.30;;
76346;SDS011;73309;48.818;9.806;2023-12-20T09:12:55;1.40;;;1.30;;
76346;SDS011;73309;48.818;9.806;2023-12-20T09:15:21;1.47;;;1.37;;
76346;SDS011;73309;48.818;9.806;2023-12-20T09:17:46;1.33;;;1.23;;
76346;SDS011;73309;48.818;9.806;2023-12-20T09:20:11;1.40;;;1.30;;
76346;SDS011;73309;48.818;9.806;2023-12-20T09:22:37;1.40;;;1.30;;
76346;SDS011;73309;48.818;9.806;2023-12-20T09:25:02;1.50;;;1.40;;
76346;SDS011;73309;48.818;9.806;2023-12-20T09:27:29;1.40;;;1.30;;
76346;SDS011;73309;48.818;9.806;2023-12-20T09:29:55;1.40;;;1.30;;
76346;SDS011;73309;48.818;9.806;2023-12-20T09:32:20;1.50;;;1.40;;
76346;SDS011;73309;48.818;9.806;2023-12-20T09:34:46;1.50;;;1.40;;
76346;SDS011;73309;48.818;9.806;2023-12-20T09:37:12;1.80;;;1.40;;
76346;SDS011;73309;48.818;9.806;2023-12-20T09:39:37;1.53;;;1.43;;
76346;SDS011;73309;48.818;9.806;2023-12-20T09:42:03;1.50;;;1.40;;
76346;SDS011;73309;48.818;9.806;2023-12-20T09:44:31;1.90;;;1.70;;
76346;SDS011;73309;48.818;9.806;2023-12-20T09:46:57;1.60;;;1.50;;
76346;SDS011;73309;48.818;9.806;2023-12-20T09:49:22;1.70;;;1.50;;
76346;SDS011;73309;48.818;9.806;2023-12-20T09:51:49;1.80;;;1.63;;
76346;SDS011;73309;48.818;9.806;2023-12-20T09:54:16;1.50;;;1.40;;
76346;SDS011;73309;48.818;9.806;2023-12-20T09:56:42;1.47;;;1.37;;
76346;SDS011;73309;48.818;9.806;2023-12-20T09:59:07;1.73;;;1.50;;
76346;SDS011;73309;48.818;9.806;2023-12-20T10:01:34;1.60;;;1.43;;
76346;SDS011;73309;48.818;9.806;2023-12-20T10:04:00;1.77;;;1.67;;
76346;SDS011;73309;48.818;9.806;2023-12-20T10:06:30;1.70;;;1.40;;
76346;SDS011;73309;48.818;9.806;2023-12-20T10:08:55;1.73;;;1.50;;
76346;SDS011;73309;48.818;9.806;2023-12-20T10:11:20;1.60;;;1.50;;
76346;SDS011;73309;48.818;9.806;2023-12-20T10:13:47;1.40;;;1.30;;
76346;SDS011;73309;48.818;9.806;2023-12-20T10:16:13;2.60;;;1.70;;
76346;SDS011;73309;48.818;9.806;2023-12-20T10:18:40;1.60;;;1.40;;
76346;SDS011;73309;48.818;9.806;2023-12-20T10:21:05;2.13;;;1.50;;
76346;SDS011;73309;48.818;9.806;2023-12-20T10:23:31;1.50;;;1.40;;
76346;SDS011;73309;48.818;9.806;2023-12-20T10:25:57;2.70;;;1.40;;
76346;SDS011;73309;48.818;9.806;2023-12-20T10:28:22;2.77;;;1.60;;
76346;SDS011;73309;48.818;9.806;2023-12-20T10:30:48;2.50;;;1.50;;
76346;SDS011;73309;48.818;9.806;2023-12-20T10:33:13;2.37;;;1.60;;
76346;SDS011;73309;48.818;9.806;2023-12-20T10:35:40;1.70;;;1.50;;
76346;SDS011;73309;48.818;9.806;2023-12-20T10:38:05;1.47;;;1.37;;
76346;SDS011;73309;48.818;9.806;2023-12-20T10:40:31;1.60;;;1.50;;
76346;SDS011;73309;48.818;9.806;2023-12-20T10:42:59;2.20;;;1.70;;
76346;SDS011;73309;48.818;9.806;2023-12-20T10:45:27;1.87;;;1.70;;
76346;SDS011;73309;48.818;9.806;2023-12-20T10:47:52;1.53;;;1.43;;
76346;SDS011;73309;48.818;9.806;2023-12-20T10:50:18;1.63;;;1.50;;
76346;SDS011;73309;48.818;9.806;2023-12-20T10:52:45;2.07;;;1.57;;
76346;SDS011;73309;48.818;9.806;2023-12-20T10:55:12;3.23;;;1.57;;
76346;SDS011;73309;48.818;9.806;2023-12-20T10:57:38;2.13;;;1.50;;
76346;SDS011;73309;48.818;9.806;2023-12-20T11:00:04;2.03;;;1.57;;
76346;SDS011;73309;48.818;9.806;2023-12-20T11:02:33;2.27;;;1.50;;
76346;SDS011;73309;48.818;9.806;2023-12-20T11:05:06;2.73;;;1.60;;
76346;SDS011;73309;48.818;9.806;2023-12-20T11:07:38;1.67;;;1.40;;
76346;SDS011;73309;48.818;9.806;2023-12-20T11:10:13;1.83;;;1.50;;
76346;SDS011;73309;48.818;9.806;2023-12-20T11:12:43;2.57;;;1.40;;
76346;SDS011;73309;48.818;9.806;2023-12-20T11:15:13;1.87;;;1.40;;
76346;SDS011;73309;48.818;9.806;2023-12-20T11:17:40;2.63;;;1.43;;
76346;SDS011;73309;48.818;9.806;2023-12-20T11:20:08;3.00;;;1.60;;
76346;SDS011;73309;48.818;9.806;2023-12-20T11:22:35;3.83;;;1.83;;
76346;SDS011;73309;48.818;9.806;2023-12-20T11:25:03;3.50;;;1.40;;
76346;SDS011;73309;48.818;9.806;2023-12-20T11:27:31;1.83;;;1.40;;
76346;SDS011;73309;48.818;9.806;2023-12-20T11:29:57;2.77;;;1.47;;
76346;SDS011;73309;48.818;9.806;2023-12-20T11:32:29;1.57;;;1.33;;
76346;SDS011;73309;48.818;9.806;2023-12-20T11:34:55;2.10;;;1.30;;
76346;SDS011;73309;48.818;9.806;2023-12-20T11:37:21;2.60;;;1.60;;
76346;SDS011;73309;48.818;9.806;2023-12-20T11:39:53;2.90;;;1.60;;
76346;SDS011;73309;48.818;9.806;2023-12-20T11:42:19;2.67;;;1.50;;
76346;SDS011;73309;48.818;9.806;2023-12-20T11:44:46;2.30;;;1.33;;
76346;SDS011;73309;48.818;9.806;2023-12-20T11:47:12;2.90;;;1.40;;
76346;SDS011;73309;48.818;9.806;2023-12-20T11:49:38;1.60;;;1.40;;
76346;SDS011;73309;48.818;9.806;2023-12-20T11:52:03;3.30;;;1.47;;
76346;SDS011;73309;48.818;9.806;2023-12-20T11:54:29;2.83;;;1.47;;
76346;SDS011;73309;48.818;9.806;2023-12-20T11:56:55;3.93;;;1.60;;
76346;SDS011;73309;48.818;9.806;2023-12-20T11:59:21;2.93;;;1.33;;
76346;SDS011;73309;48.818;9.806;2023-12-20T12:01:50;3.37;;;1.30;;
76346;SDS011;73309;48.818;9.806;2023-12-20T12:04:16;2.73;;;1.40;;
76346;SDS011;73309;48.818;9.806;2023-12-20T12:06:41;2.60;;;1.50;;
76346;SDS011;73309;48.818;9.806;2023-12-20T12:09:07;2.40;;;1.50;;
76346;SDS011;73309;48.818;9.806;2023-12-20T12:11:32;2.03;;;1.43;;
76346;SDS011;73309;48.818;9.806;2023-12-20T12:13:58;2.33;;;1.33;;
76346;SDS011;73309;48.818;9.806;2023-12-20T12:16:23;3.30;;;1.50;;
76346;SDS011;73309;48.818;9.806;2023-12-20T12:18:56;3.27;;;1.70;;
76346;SDS011;73309;48.818;9.806;2023-12-20T12:21:22;2.13;;;1.40;;
76346;SDS011;73309;48.818;9.806;2023-12-20T12:23:47;4.03;;;1.50;;
76346;SDS011;73309;48.818;9.806;2023-12-20T12:26:13;2.47;;;1.50;;
76346;SDS011;73309;48.818;9.806;2023-12-20T12:28:39;3.93;;;1.40;;
76346;SDS011;73309;48.818;9.806;2023-12-20T12:31:05;2.90;;;1.40;;
76346;SDS011;73309;48.818;9.806;2023-12-20T12:33:30;3.27;;;1.80;;
76346;SDS011;73309;48.818;9.806;2023-12-20T12:35:57;2.60;;;1.60;;
76346;SDS011;73309;48.818;9.806;2023-12-20T12:38:23;2.30;;;1.60;;
76346;SDS011;73309;48.818;9.806;2023-12-20T12:40:49;3.67;;;1.50;;
76346;SDS011;73309;48.818;9.806;2023-12-20T12:43:15;2.30;;;1.33;;
76346;SDS011;73309;48.818;9.806;2023-12-20T12:45:40;3.97;;;1.53;;
76346;SDS011;73309;48.818;9.806;2023-12-20T12:48:06;2.93;;;1.60;;
76346;SDS011;73309;48.818;9.806;2023-12-20T12:50:32;2.30;;;1.40;;
76346;SDS011;73309;48.818;9.806;2023-12-20T12:52:58;4.20;;;1.60;;
76346;SDS011;73309;48.818;9.806;2023-12-20T12:55:24;4.73;;;1.60;;
76346;SDS011;73309;48.818;9.806;2023-12-20T12:57:49;4.43;;;1.67;;
76346;SDS011;73309;48.818;9.806;2023-12-20T13:00:15;3.57;;;1.80;;
76346;SDS011;73309;48.818;9.806;2023-12-20T13:02:41;3.73;;;1.50;;
76346;SDS011;73309;48.818;9.806;2023-12-20T13:05:06;3.87;;;1.53;;
76346;SDS011;73309;48.818;9.806;2023-12-20T13:07:32;4.60;;;1.40;;
76346;SDS011;73309;48.818;9.806;2023-12-20T13:09:59;3.50;;;1.80;;
76346;SDS011;73309;48.818;9.806;2023-12-20T13:12:24;5.10;;;1.87;;
76346;SDS011;73309;48.818;9.806;2023-12-20T13:14:50;2.37;;;1.50;;
76346;SDS011;73309;48.818;9.806;2023-12-20T13:17:15;4.33;;;1.60;;
76346;SDS011;73309;48.818;9.806;2023-12-20T13:19:41;3.40;;;1.63;;
76346;SDS011;73309;48.818;9.806;2023-12-20T13:22:06;3.83;;;1.73;;
76346;SDS011;73309;48.818;9.806;2023-12-20T13:24:31;5.77;;;2.03;;
76346;SDS011;73309;48.818;9.806;2023-12-20T13:26:58;6.20;;;2.03;;
76346;SDS011;73309;48.818;9.806;2023-12-20T13:29:24;5.80;;;2.00;;
76346;SDS011;73309;48.818;9.806;2023-12-20T13:31:49;6.13;;;2.30;;
76346;SDS011;73309;48.818;9.806;2023-12-20T13:34:15;8.00;;;2.30;;
76346;SDS011;73309;48.818;9.806;2023-12-20T13:36:40;5.80;;;2.30;;
76346;SDS011;73309;48.818;9.806;2023-12-20T13:39:05;4.47;;;2.23;;
76346;SDS011;73309;48.818;9.806;2023-12-20T13:41:31;7.47;;;2.23;;
76346;SDS011;73309;48.818;9.806;2023-12-20T13:43:58;5.07;;;2.03;;
76346;SDS011;73309;48.818;9.806;2023-12-20T13:46:23;4.53;;;2.20;;
76346;SDS011;73309;48.818;9.806;2023-12-20T13:48:48;6.87;;;2.23;;
76346;SDS011;73309;48.818;9.806;2023-12-20T13:51:14;6.03;;;2.10;;
76346;SDS011;73309;48.818;9.806;2023-12-20T13:53:39;6.50;;;2.00;;
76346;SDS011;73309;48.818;9.806;2023-12-20T13:56:05;5.50;;;2.20;;
76346;SDS011;73309;48.818;9.806;2023-12-20T13:58:31;3.80;;;1.87;;
76346;SDS011;73309;48.818;9.806;2023-12-20T14:00:57;4.33;;;1.87;;
76346;SDS011;73309;48.818;9.806;2023-12-20T14:03:23;4.97;;;2.10;;
76346;SDS011;73309;48.818;9.806;2023-12-20T14:05:48;5.87;;;2.10;;
76346;SDS011;73309;48.818;9.806;2023-12-20T14:08:14;4.77;;;2.17;;
76346;SDS011;73309;48.818;9.806;2023-12-20T14:10:39;5.37;;;2.00;;
76346;SDS011;73309;48.818;9.806;2023-12-20T14:13:04;4.90;;;2.10;;
76346;SDS011;73309;48.818;9.806;2023-12-20T14:15:30;5.30;;;2.10;;
76346;SDS011;73309;48.818;9.806;2023-12-20T14:17:56;3.90;;;1.80;;
76346;SDS011;73309;48.818;9.806;2023-12-20T14:20:25;4.63;;;2.07;;
76346;SDS011;73309;48.818;9.806;2023-12-20T14:22:50;4.57;;;1.80;;
76346;SDS011;73309;48.818;9.806;2023-12-20T14:25:16;5.53;;;2.20;;
76346;SDS011;73309;48.818;9.806;2023-12-20T14:27:41;6.63;;;1.63;;
76346;SDS011;73309;48.818;9.806;2023-12-20T14:30:07;4.27;;;2.00;;
76346;SDS011;73309;48.818;9.806;2023-12-20T14:32:34;4.43;;;2.10;;
76346;SDS011;73309;48.818;9.806;2023-12-20T14:35:01;3.03;;;1.90;;
76346;SDS011;73309;48.818;9.806;2023-12-20T14:37:27;3.57;;;1.90;;
76346;SDS011;73309;48.818;9.806;2023-12-20T14:39:52;4.13;;;1.93;;
76346;SDS011;73309;48.818;9.806;2023-12-20T14:42:17;4.87;;;1.80;;